Time;durP1;ratioP1;P1;durP2;ratioP2;P2;SDS_P1;SDS_P2;PMS_P1;PMS_P2;Temp;Humidity;BMP_temperature;BMP_pressure;BME280_temperature;BME280_humidity;BME280_pressure;Samples;Min_cycle;Max_cycle;Signal;HPM_P1;HPM_P2
2022/02/28 00:01:56;;;;;;;1.80;1.00;;;;;;;19.11;41.82;101724.53;5004845;28;20037;-44
2022/02/28 00:04:22;;;;;;;2.67;1.45;;;;;;;19.10;41.57;101712.31;5003173;28;20038;-44
2022/02/28 00:06:47;;;;;;;2.85;1.50;;;;;;;19.09;41.46;101718.59;5004333;28;20080;-44
2022/02/28 00:09:13;;;;;;;3.63;1.38;;;;;;;19.08;41.43;101714.31;5002836;28;20041;-42
2022/02/28 00:11:39;;;;;;;2.97;1.52;;;;;;;19.08;41.53;101716.94;5004756;28;20053;-44
2022/02/28 00:14:04;;;;;;;2.22;1.08;;;;;;;19.09;41.85;101723.88;5006094;28;20045;-43
2022/02/28 00:16:30;;;;;;;1.98;1.15;;;;;;;19.07;41.91;101720.59;5003388;28;20029;-42
2022/02/28 00:18:56;;;;;;;1.92;1.15;;;;;;;19.07;41.79;101728.50;5002393;28;20125;-43
2022/02/28 00:21:21;;;;;;;2.13;1.42;;;;;;;19.06;41.87;101729.50;5004108;28;20068;-42
2022/02/28 00:23:47;;;;;;;2.60;1.60;;;;;;;19.05;41.76;101727.84;5006607;28;20062;-42
2022/02/28 00:26:12;;;;;;;3.65;1.50;;;;;;;19.04;41.95;101723.56;5005918;28;20133;-44
2022/02/28 00:28:38;;;;;;;2.40;1.08;;;;;;;19.04;42.01;101725.38;5001621;28;20042;-44
2022/02/28 00:31:03;;;;;;;3.10;1.10;;;;;;;19.04;41.95;101725.38;5006562;28;20030;-42
2022/02/28 00:33:29;;;;;;;2.13;1.25;;;;;;;19.03;41.99;101721.09;5005953;28;20116;-43
2022/02/28 00:35:55;;;;;;;2.38;1.67;;;;;;;19.01;42.00;101710.69;5003936;28;20034;-44
2022/02/28 00:38:20;;;;;;;3.10;1.50;;;;;;;19.02;42.02;101727.38;5003772;28;20038;-43
2022/02/28 00:40:47;;;;;;;3.40;1.40;;;;;;;19.02;42.02;101722.91;5004939;28;20616;-42
2022/02/28 00:43:12;;;;;;;3.30;1.42;;;;;;;19.01;42.01;101718.63;5003225;28;20034;-43
2022/02/28 00:45:38;;;;;;;2.55;1.02;;;;;;;19.00;42.01;101718.78;5004146;28;20044;-42
2022/02/28 00:48:04;;;;;;;2.03;1.10;;;;;;;19.00;41.94;101719.59;5005512;28;20026;-42
2022/02/28 00:50:30;;;;;;;1.98;1.27;;;;;;;18.99;42.08;101717.13;5003252;28;20044;-42
2022/02/28 00:52:55;;;;;;;2.22;1.13;;;;;;;18.99;41.99;101712.69;5004413;28;20057;-42
2022/02/28 00:55:21;;;;;;;1.13;1.00;;;;;;;18.99;41.97;101714.50;5005288;28;20080;-42
2022/02/28 00:57:47;;;;;;;2.30;1.20;;;;;;;18.98;42.05;101699.63;5004739;28;20144;-47
2022/02/28 01:00:15;;;;;;;1.98;1.20;;;;;;;18.97;42.05;101700.63;5004401;28;20036;-43
2022/02/28 01:02:41;;;;;;;2.13;1.05;;;;;;;18.96;42.08;101709.56;5004688;28;20197;-42
2022/02/28 01:05:07;;;;;;;1.65;1.00;;;;;;;18.96;42.09;101704.28;5006045;28;20827;-42
2022/02/28 01:07:33;;;;;;;2.17;1.15;;;;;;;18.95;42.10;101705.25;5002497;28;20036;-47
2022/02/28 01:09:58;;;;;;;2.05;1.23;;;;;;;18.93;41.94;101701.97;5002311;28;20046;-43
2022/02/28 01:12:24;;;;;;;1.42;0.88;;;;;;;18.93;41.78;101701.97;5004612;28;20046;-45
2022/02/28 01:14:49;;;;;;;3.20;1.40;;;;;;;18.91;42.07;101704.78;5003270;28;20044;-42
2022/02/28 01:17:16;;;;;;;1.77;1.08;;;;;;;18.90;42.13;101693.38;5004639;28;20108;-42
2022/02/28 01:19:42;;;;;;;1.73;1.33;;;;;;;18.92;42.03;101697.69;5017505;28;20513;-43
2022/02/28 01:22:11;;;;;;;1.90;1.17;;;;;;;18.92;41.97;101700.31;5005985;28;20113;-42
2022/02/28 01:24:40;;;;;;;2.30;1.30;;;;;;;18.90;41.88;101692.59;5004388;28;20497;-43
2022/02/28 01:27:06;;;;;;;1.42;1.00;;;;;;;18.90;41.87;101692.59;5008895;28;20033;-43
2022/02/28 01:29:31;;;;;;;2.00;0.90;;;;;;;18.90;42.20;101696.03;5004899;28;20026;-44
2022/02/28 01:31:57;;;;;;;1.40;1.00;;;;;;;18.88;42.01;101690.13;5006175;28;20061;-42
2022/02/28 01:34:22;;;;;;;2.33;1.30;;;;;;;18.88;42.13;101687.47;5007264;28;20627;-42
2022/02/28 01:36:48;;;;;;;1.77;0.90;;;;;;;18.87;42.19;101680.56;5008001;28;20474;-43
2022/02/28 01:39:13;;;;;;;2.83;1.13;;;;;;;18.87;42.19;101682.38;5005542;28;20029;-43
2022/02/28 01:41:39;;;;;;;2.28;1.20;;;;;;;18.87;42.31;101682.38;5022148;28;20026;-43
2022/02/28 01:44:06;;;;;;;2.05;0.90;;;;;;;18.85;42.11;101666.69;5008037;28;20034;-42
2022/02/28 01:46:31;;;;;;;3.20;0.95;;;;;;;18.84;42.31;101670.31;5008051;28;20113;-42
2022/02/28 01:48:57;;;;;;;1.40;1.02;;;;;;;18.84;42.37;101661.59;5008225;28;20847;-45
2022/02/28 01:51:22;;;;;;;2.17;0.98;;;;;;;18.84;42.20;101674.78;5007895;28;20029;-42
2022/02/28 01:53:48;;;;;;;2.08;1.17;;;;;;;18.82;42.18;101661.75;5007870;28;20107;-42
2022/02/28 01:56:14;;;;;;;1.60;0.93;;;;;;;18.81;42.13;101662.75;5007505;28;20026;-42
2022/02/28 01:58:39;;;;;;;2.08;1.08;;;;;;;18.81;42.15;101656.63;5004570;28;20034;-43
2022/02/28 02:01:07;;;;;;;1.75;0.80;;;;;;;18.80;42.16;101645.25;5007237;28;20030;-42
2022/02/28 02:03:33;;;;;;;2.00;0.90;;;;;;;18.79;42.08;101643.59;5005893;28;20029;-42
2022/02/28 02:05:59;;;;;;;1.98;0.82;;;;;;;18.79;42.10;101642.78;5006530;28;20059;-45
2022/02/28 02:08:26;;;;;;;1.92;1.30;;;;;;;18.79;42.26;101642.78;5006778;28;20033;-46
2022/02/28 02:13:29;;;;;;;2.50;1.20;;;;;;;18.75;42.17;101642.28;4891721;22;20054;-43
2022/02/28 02:15:56;;;;;;;1.58;0.68;;;;;;;18.75;42.12;101642.28;4989256;28;20153;-43
2022/02/28 02:18:21;;;;;;;1.83;1.25;;;;;;;18.76;42.11;101643.94;4988593;28;20034;-43
2022/02/28 02:20:47;;;;;;;2.40;1.23;;;;;;;18.75;42.12;101642.28;4989018;28;20034;-44
2022/02/28 02:23:13;;;;;;;1.58;1.02;;;;;;;18.74;42.15;101640.66;4986130;28;20027;-44
2022/02/28 02:25:40;;;;;;;2.30;1.00;;;;;;;18.73;42.19;101627.63;4987493;28;20073;-44
2022/02/28 02:28:07;;;;;;;2.55;1.23;;;;;;;18.73;42.22;101632.91;4986849;28;20033;-43
2022/02/28 02:30:34;;;;;;;2.50;1.30;;;;;;;18.73;42.18;101640.81;4988243;28;20034;-43
2022/02/28 02:33:00;;;;;;;2.05;1.05;;;;;;;18.71;42.34;101637.53;4987617;28;20026;-42
2022/02/28 02:35:25;;;;;;;1.38;0.82;;;;;;;18.72;42.14;101634.72;4981288;28;20030;-42
2022/02/28 02:37:51;;;;;;;1.75;0.85;;;;;;;18.72;42.16;101633.88;4986824;28;20121;-42
2022/02/28 02:40:17;;;;;;;2.00;0.98;;;;;;;18.70;42.16;101626.13;4987524;28;20480;-43
2022/02/28 02:42:42;;;;;;;4.60;0.98;;;;;;;18.70;42.16;101628.78;4985948;28;20042;-43
2022/02/28 02:45:08;;;;;;;2.08;0.90;;;;;;;18.73;42.09;101632.91;4986660;28;20073;-43
2022/02/28 02:47:34;;;;;;;1.88;0.80;;;;;;;18.71;42.16;101635.72;4986275;28;20034;-45
2022/02/28 02:49:59;;;;;;;1.73;1.20;;;;;;;18.72;42.12;101633.88;4987268;28;20137;-42
2022/02/28 02:52:25;;;;;;;1.95;0.98;;;;;;;18.70;42.02;101617.41;4987095;28;20166;-43
2022/02/28 02:54:50;;;;;;;2.55;1.05;;;;;;;18.70;42.00;101623.50;4986888;28;20065;-42
2022/02/28 02:57:18;;;;;;;1.90;1.10;;;;;;;18.69;42.00;101621.03;4994369;28;20039;-43
2022/02/28 02:59:44;;;;;;;2.00;0.90;;;;;;;18.70;41.78;101620.84;4986448;28;20041;-42
2022/02/28 03:02:09;;;;;;;1.70;0.98;;;;;;;18.69;41.96;101621.03;4985878;28;20042;-43
2022/02/28 03:04:35;;;;;;;1.95;0.80;;;;;;;18.68;42.08;101614.94;4986723;28;20049;-43
2022/02/28 03:07:00;;;;;;;1.63;0.93;;;;;;;18.69;41.93;101629.78;4987595;28;20443;-42
2022/02/28 03:09:25;;;;;;;1.65;0.75;;;;;;;18.68;42.04;101629.94;4986329;28;20069;-44
2022/02/28 03:11:51;;;;;;;1.42;0.82;;;;;;;18.66;42.26;101632.75;4981682;28;20081;-47
2022/02/28 03:14:16;;;;;;;1.70;0.80;;;;;;;18.64;42.13;101642.66;4984890;28;20042;-44
2022/02/28 03:16:42;;;;;;;1.83;0.95;;;;;;;18.64;42.03;101637.38;4983664;28;20464;-46
2022/02/28 03:19:07;;;;;;;1.27;0.77;;;;;;;18.63;42.04;101635.72;4982187;28;20050;-44
2022/02/28 03:21:33;;;;;;;2.10;0.90;;;;;;;18.63;42.18;101645.47;4987089;28;20042;-42
2022/02/28 03:23:59;;;;;;;2.00;0.70;;;;;;;18.62;42.14;101639.34;4986486;28;20499;-42
2022/02/28 03:26:24;;;;;;;1.25;0.50;;;;;;;18.61;42.01;101637.72;4986014;28;20556;-43
2022/02/28 03:28:50;;;;;;;1.58;0.82;;;;;;;18.61;41.89;101639.53;4986301;28;20026;-42
2022/02/28 03:31:15;;;;;;;1.33;0.80;;;;;;;18.59;41.99;101639.66;4986785;28;20109;-44
2022/02/28 03:33:41;;;;;;;3.22;1.05;;;;;;;18.60;42.01;101632.56;4986078;28;20033;-43
2022/02/28 03:36:06;;;;;;;1.88;1.30;;;;;;;18.58;42.29;101630.09;4986889;28;20049;-43
2022/02/28 03:38:32;;;;;;;2.08;0.98;;;;;;;18.58;42.02;101635.38;4984682;28;20043;-42
2022/02/28 03:40:57;;;;;;;2.00;1.05;;;;;;;18.57;41.90;101633.72;4986615;28;20034;-42
2022/02/28 03:43:23;;;;;;;1.77;0.90;;;;;;;18.57;41.81;101624.00;4984452;28;20026;-42
2022/02/28 03:45:48;;;;;;;1.38;1.00;;;;;;;18.57;42.02;101617.88;4986171;28;20037;-42
2022/02/28 03:48:14;;;;;;;2.00;0.77;;;;;;;18.57;42.07;101623.16;4985826;28;20034;-42
2022/02/28 03:50:41;;;;;;;3.38;0.93;;;;;;;18.57;41.68;101617.88;4985323;28;20070;-43
2022/02/28 03:53:07;;;;;;;2.30;1.20;;;;;;;18.56;41.64;101613.59;4986436;28;20385;-42
2022/02/28 03:55:33;;;;;;;3.08;1.50;;;;;;;18.55;41.60;101614.59;4985981;28;20116;-43
2022/02/28 03:57:59;;;;;;;1.80;0.90;;;;;;;18.55;41.55;101617.22;4984198;28;20073;-42
2022/02/28 04:00:24;;;;;;;2.00;0.90;;;;;;;18.56;41.39;101616.25;4986398;28;20033;-41
2022/02/28 04:02:50;;;;;;;2.30;1.27;;;;;;;18.54;41.42;101610.31;4985827;28;20045;-43
2022/02/28 04:05:17;;;;;;;2.17;1.20;;;;;;;18.53;41.37;101606.84;4985854;28;20046;-44
2022/02/28 04:07:43;;;;;;;2.15;1.05;;;;;;;18.53;41.22;101611.28;4986245;28;20038;-43
2022/02/28 04:10:09;;;;;;;1.70;1.08;;;;;;;18.52;41.18;101605.19;4985355;28;20037;-42
2022/02/28 04:12:35;;;;;;;2.58;1.20;;;;;;;18.51;41.21;101600.91;4984901;28;20070;-43
2022/02/28 04:15:00;;;;;;;1.33;0.82;;;;;;;18.51;41.42;101600.91;4986005;28;20076;-42
2022/02/28 04:17:26;;;;;;;1.27;0.98;;;;;;;18.50;41.50;101596.63;4986313;28;20370;-45
2022/02/28 04:19:51;;;;;;;2.25;0.80;;;;;;;18.50;41.80;101603.72;4985545;28;20049;-42
2022/02/28 04:22:17;;;;;;;1.30;1.08;;;;;;;18.49;41.81;101594.16;4986153;28;20031;-43
2022/02/28 04:24:43;;;;;;;1.20;0.95;;;;;;;18.48;41.73;101587.22;4985614;28;20413;-42
2022/02/28 04:27:09;;;;;;;1.70;0.80;;;;;;;18.47;41.69;101588.22;4984671;28;20555;-42
2022/02/28 04:29:34;;;;;;;2.42;0.90;;;;;;;18.46;41.87;101583.94;4985565;28;20030;-41
2022/02/28 04:32:00;;;;;;;1.40;0.80;;;;;;;18.45;41.71;101588.38;4985163;28;20030;-43
2022/02/28 04:34:27;;;;;;;1.75;0.65;;;;;;;18.45;41.85;101577.00;4984418;28;20042;-42
2022/02/28 04:36:52;;;;;;;1.63;0.75;;;;;;;18.44;41.81;101585.91;4986120;28;20037;-42
2022/02/28 04:39:19;;;;;;;1.52;0.88;;;;;;;18.40;41.71;101577.53;4985677;28;20038;-41
2022/02/28 04:41:44;;;;;;;2.10;0.95;;;;;;;18.40;41.67;101582.81;4985398;28;20081;-41
2022/02/28 04:44:09;;;;;;;1.33;0.80;;;;;;;18.40;41.71;101585.47;4985272;28;20034;-47
2022/02/28 04:46:35;;;;;;;1.30;0.68;;;;;;;18.40;41.73;101577.53;4986356;28;20038;-41
2022/02/28 04:49:00;;;;;;;1.75;0.75;;;;;;;18.39;41.70;101577.72;4985206;28;20080;-41
2022/02/28 04:51:26;;;;;;;1.40;0.80;;;;;;;18.37;41.58;101571.78;4984549;28;20057;-41
2022/02/28 04:53:52;;;;;;;1.65;1.00;;;;;;;18.38;41.52;101568.16;4986196;28;20441;-42
2022/02/28 04:56:17;;;;;;;3.33;0.93;;;;;;;18.38;41.54;101566.34;4989110;28;20696;-42
2022/02/28 04:58:43;;;;;;;4.28;0.95;;;;;;;18.41;41.51;101562.53;4988333;28;20041;-41
2022/02/28 05:01:08;;;;;;;1.52;0.88;;;;;;;18.40;41.58;101559.06;4996609;28;20030;-41
2022/02/28 05:03:33;;;;;;;1.50;0.90;;;;;;;18.40;41.55;101567.00;4997676;28;20394;-43
2022/02/28 05:06:00;;;;;;;1.30;0.80;;;;;;;18.40;41.77;101561.72;4988983;28;20038;-41
2022/02/28 05:08:25;;;;;;;3.10;0.90;;;;;;;18.42;41.72;101561.53;4988942;28;20105;-42
2022/02/28 05:10:50;;;;;;;1.23;0.70;;;;;;;18.40;41.77;101553.78;4988546;28;20033;-42
2022/02/28 05:13:16;;;;;;;2.25;0.70;;;;;;;18.42;41.85;101561.53;4988704;28;20046;-43
2022/02/28 05:15:41;;;;;;;1.85;0.88;;;;;;;18.48;41.68;101566.13;4989415;28;20053;-45
2022/02/28 05:18:07;;;;;;;1.17;0.70;;;;;;;18.53;41.67;101569.06;4988656;28;20030;-41
2022/02/28 05:20:32;;;;;;;1.73;0.90;;;;;;;18.55;41.63;101572.38;4988072;28;20037;-42
2022/02/28 05:22:58;;;;;;;1.05;0.60;;;;;;;18.56;41.65;101568.72;4988757;28;20068;-42
2022/02/28 05:25:23;;;;;;;1.40;0.50;;;;;;;18.57;41.77;101567.75;4989077;28;20061;-42
2022/02/28 05:27:49;;;;;;;1.80;0.93;;;;;;;18.58;41.71;101569.38;4988386;28;20659;-42
2022/02/28 05:30:15;;;;;;;1.65;0.82;;;;;;;18.60;41.71;101570.06;4988578;28;20030;-41
2022/02/28 05:32:41;;;;;;;1.00;0.50;;;;;;;18.64;41.61;101571.38;4988283;28;20089;-42
2022/02/28 05:35:11;;;;;;;2.05;1.10;;;;;;;18.66;41.77;101569.41;4988420;28;20060;-41
2022/02/28 05:37:38;;;;;;;2.75;0.80;;;;;;;18.70;41.78;101570.69;4988387;28;20026;-42
2022/02/28 05:40:05;;;;;;;1.27;0.93;;;;;;;18.75;41.76;101565.72;4988669;28;20034;-44
2022/02/28 05:42:30;;;;;;;1.38;0.47;;;;;;;18.79;41.65;101561.75;4987957;28;20749;-42
2022/02/28 05:44:56;;;;;;;1.70;0.80;;;;;;;18.83;41.35;101555.16;4988755;28;20057;-41
2022/02/28 05:47:21;;;;;;;1.33;0.80;;;;;;;18.89;41.63;101567.66;4988445;28;20031;-41
2022/02/28 05:49:47;;;;;;;2.03;0.80;;;;;;;18.95;41.40;101562.66;4988350;28;20030;-43
2022/02/28 05:52:12;;;;;;;2.38;0.70;;;;;;;19.00;41.58;101563.78;4988210;28;20197;-41
2022/02/28 05:54:38;;;;;;;1.15;0.70;;;;;;;19.06;41.54;101567.56;4987953;28;20535;-43
2022/02/28 05:57:06;;;;;;;1.38;0.63;;;;;;;19.10;41.46;101560.94;4988526;28;20133;-47
2022/02/28 05:59:32;;;;;;;2.70;0.70;;;;;;;19.16;41.50;101552.31;4987215;28;20034;-41
2022/02/28 06:01:59;;;;;;;1.65;0.60;;;;;;;19.20;41.46;101561.53;4985030;28;20077;-41
2022/02/28 06:04:25;;;;;;;2.40;0.98;;;;;;;19.26;41.51;101560.03;4988596;28;20426;-41
2022/02/28 06:06:50;;;;;;;1.60;0.93;;;;;;;19.34;41.57;101558.16;4983794;28;20077;-42
2022/02/28 06:09:16;;;;;;;1.23;0.52;;;;;;;19.41;41.30;101566.19;5003025;28;20037;-43
2022/02/28 06:11:41;;;;;;;1.17;0.60;;;;;;;19.47;41.21;101553.09;4984807;28;20522;-43
2022/02/28 06:14:07;;;;;;;1.77;0.50;;;;;;;19.53;41.25;101552.41;4987717;28;20038;-43
2022/02/28 06:16:32;;;;;;;1.88;0.75;;;;;;;19.62;41.04;101560.28;4988159;28;20027;-43
2022/02/28 06:18:58;;;;;;;1.50;0.73;;;;;;;19.69;41.11;101562.06;4987779;28;20545;-43
2022/02/28 06:21:23;;;;;;;1.67;0.63;;;;;;;19.75;41.09;101563.16;4987456;28;20062;-43
2022/02/28 06:23:49;;;;;;;1.60;0.82;;;;;;;19.80;41.02;101559.00;4987833;28;20454;-44
2022/02/28 06:26:14;;;;;;;2.00;0.68;;;;;;;19.86;40.82;101565.38;4986767;28;20042;-41
2022/02/28 06:28:40;;;;;;;1.27;0.65;;;;;;;19.92;40.93;101562.00;4987718;28;20038;-42
2022/02/28 06:31:06;;;;;;;1.52;0.50;;;;;;;19.95;40.75;101566.94;4987348;28;20102;-44
2022/02/28 06:33:32;;;;;;;1.15;0.70;;;;;;;19.99;40.82;101562.13;4987950;28;20172;-42
2022/02/28 06:36:00;;;;;;;2.42;0.60;;;;;;;20.04;40.88;101570.34;4987392;28;20041;-42
2022/02/28 06:38:26;;;;;;;1.98;0.75;;;;;;;20.07;40.95;101570.81;4983275;28;20026;-43
2022/02/28 06:40:52;;;;;;;3.00;0.80;;;;;;;20.10;40.81;101570.44;4987027;28;20038;-44
2022/02/28 06:43:20;;;;;;;4.35;0.93;;;;;;;20.13;40.92;101571.91;4986143;28;20085;-43
2022/02/28 06:45:50;;;;;;;1.38;0.68;;;;;;;20.16;40.71;101564.44;4986874;28;20401;-48
2022/02/28 06:48:16;;;;;;;2.15;0.77;;;;;;;20.23;40.60;101569.00;4986210;28;20026;-42
2022/02/28 06:50:42;;;;;;;3.13;0.80;;;;;;;20.26;40.32;101568.66;4987027;28;20123;-44
2022/02/28 06:53:08;;;;;;;1.48;0.80;;;;;;;20.31;40.22;101576.88;4983766;28;20026;-42
2022/02/28 06:55:33;;;;;;;2.85;1.33;;;;;;;20.32;40.47;101563.41;4986839;28;20481;-42
2022/02/28 06:57:59;;;;;;;1.63;0.63;;;;;;;20.34;40.29;101568.53;4986180;28;20064;-45
2022/02/28 07:00:24;;;;;;;3.35;1.00;;;;;;;20.38;40.32;101568.03;4986753;28;20037;-44
2022/02/28 07:02:50;;;;;;;3.22;0.90;;;;;;;20.43;39.99;101564.84;4981635;28;20513;-45
2022/02/28 07:05:15;;;;;;;1.80;1.02;;;;;;;20.47;40.11;101571.41;4986598;28;20158;-43
2022/02/28 07:07:41;;;;;;;2.83;0.70;;;;;;;20.50;40.10;101576.34;4982974;28;20057;-43
2022/02/28 07:10:09;;;;;;;1.38;0.70;;;;;;;20.51;40.18;101570.03;4987583;28;20165;-44
2022/02/28 07:12:35;;;;;;;1.88;0.80;;;;;;;20.51;40.11;101568.22;4984719;28;20140;-45
2022/02/28 07:15:02;;;;;;;2.83;0.70;;;;;;;20.52;39.89;101574.34;4981749;28;20022;-41
2022/02/28 07:17:28;;;;;;;2.35;0.68;;;;;;;20.51;39.81;101572.69;4983205;28;20034;-42
2022/02/28 07:19:54;;;;;;;3.97;0.85;;;;;;;20.54;39.98;101580.25;4984380;28;20037;-43
2022/02/28 07:22:19;;;;;;;1.40;0.77;;;;;;;20.55;39.80;101579.25;4980119;28;20104;-42
2022/02/28 07:24:45;;;;;;;2.40;0.80;;;;;;;20.56;39.94;101586.19;4986847;28;20117;-44
2022/02/28 07:27:10;;;;;;;1.98;0.93;;;;;;;20.57;39.72;101587.84;4982753;28;20026;-42
2022/02/28 07:29:36;;;;;;;1.42;0.60;;;;;;;20.58;39.73;101584.19;4987034;28;20041;-43
2022/02/28 07:32:02;;;;;;;2.33;0.95;;;;;;;20.58;39.53;101589.50;4987059;28;20030;-43
2022/02/28 07:34:28;;;;;;;2.38;0.80;;;;;;;20.57;39.60;101594.97;4987031;28;20457;-44
2022/02/28 07:36:53;;;;;;;1.52;0.77;;;;;;;20.55;39.61;101589.84;4986713;28;20046;-45
2022/02/28 07:39:20;;;;;;;1.50;0.85;;;;;;;20.53;39.55;101599.81;4983488;28;20022;-42
2022/02/28 07:41:46;;;;;;;1.77;0.88;;;;;;;20.50;39.81;101600.97;4988226;28;20556;-42
2022/02/28 07:44:13;;;;;;;1.70;0.95;;;;;;;20.48;39.72;101608.28;4986463;28;20026;-42
2022/02/28 07:46:39;;;;;;;2.03;0.90;;;;;;;20.47;39.92;101613.75;4985837;28;20512;-45
2022/02/28 07:49:05;;;;;;;3.17;0.80;;;;;;;20.43;39.84;101599.25;4985921;28;20049;-42
2022/02/28 07:51:31;;;;;;;2.78;0.73;;;;;;;20.41;39.66;101598.59;4986471;28;20030;-42
2022/02/28 07:53:57;;;;;;;3.40;0.90;;;;;;;20.39;39.86;101597.97;4986615;28;20474;-41
2022/02/28 07:56:22;;;;;;;3.95;1.05;;;;;;;20.37;40.09;101602.56;4984574;28;20031;-42
2022/02/28 07:58:48;;;;;;;3.03;0.90;;;;;;;20.34;39.80;101587.88;4985327;28;20431;-44
2022/02/28 08:01:13;;;;;;;1.70;0.77;;;;;;;20.32;39.79;101592.53;4982124;28;20180;-42
2022/02/28 08:03:39;;;;;;;1.85;0.77;;;;;;;20.31;39.69;101595.38;4985450;28;20481;-43
2022/02/28 08:06:04;;;;;;;1.83;0.80;;;;;;;20.30;39.98;101596.41;4983415;28;20504;-44
2022/02/28 08:08:30;;;;;;;1.20;0.57;;;;;;;20.27;39.77;101592.28;4985343;28;20037;-44
2022/02/28 08:10:55;;;;;;;2.40;0.75;;;;;;;20.27;40.11;101591.47;4986137;28;20042;-44
2022/02/28 08:13:21;;;;;;;1.88;0.93;;;;;;;20.24;40.34;101592.63;4984737;28;20377;-42
2022/02/28 08:15:46;;;;;;;4.15;0.90;;;;;;;20.23;39.95;101592.81;4986079;28;20454;-44
2022/02/28 08:18:12;;;;;;;2.13;0.95;;;;;;;20.21;40.19;101593.81;4984272;28;20450;-43
2022/02/28 08:20:37;;;;;;;1.48;0.80;;;;;;;20.20;40.16;101592.19;4983501;28;20026;-42
2022/02/28 08:23:04;;;;;;;1.55;0.70;;;;;;;20.18;40.45;101588.88;4984700;28;20038;-42
2022/02/28 08:25:30;;;;;;;1.40;0.75;;;;;;;20.17;40.50;101586.41;4984311;28;20030;-43
2022/02/28 08:27:55;;;;;;;2.13;0.88;;;;;;;20.17;40.68;101589.06;4980905;28;20154;-47
2022/02/28 08:30:21;;;;;;;1.85;0.77;;;;;;;20.14;40.71;101592.06;4981155;28;20077;-44
2022/02/28 08:32:46;;;;;;;2.95;0.93;;;;;;;20.11;40.60;101590.59;4989795;28;20062;-49
2022/02/28 08:35:12;;;;;;;5.78;1.02;;;;;;;20.17;41.25;101586.41;4983806;28;20489;-43
2022/02/28 08:37:38;;;;;;;5.10;1.25;;;;;;;20.26;41.79;101589.81;4993439;28;20490;-42
2022/02/28 08:40:04;;;;;;;3.08;1.30;;;;;;;20.32;42.08;101583.81;4986710;28;20161;-44
2022/02/28 08:42:30;;;;;;;5.57;1.60;;;;;;;20.33;43.01;101578.28;4988796;28;20058;-50
2022/02/28 08:44:55;;;;;;;2.97;1.30;;;;;;;20.28;42.92;101579.88;4985892;28;20069;-41
2022/02/28 08:47:21;;;;;;;6.10;1.25;;;;;;;20.24;43.37;101581.25;4988864;28;20038;-42
2022/02/28 08:49:47;;;;;;;5.65;1.30;;;;;;;20.17;43.68;101589.91;4989092;28;20029;-43
2022/02/28 08:52:12;;;;;;;2.38;0.85;;;;;;;20.15;43.74;101586.59;4979681;28;20030;-45
2022/02/28 08:54:38;;;;;;;5.07;1.10;;;;;;;20.14;43.68;101587.59;4986481;28;20026;-46
2022/02/28 08:57:05;;;;;;;5.07;1.05;;;;;;;20.12;43.70;101584.31;4986411;28;20049;-42
2022/02/28 08:59:30;;;;;;;5.60;0.80;;;;;;;20.09;44.70;101584.66;4982392;28;20117;-43
2022/02/28 09:01:57;;;;;;;2.15;0.80;;;;;;;20.06;45.38;101574.44;4990499;28;20125;-44
2022/02/28 09:04:23;;;;;;;2.72;0.90;;;;;;;20.04;44.75;101581.75;4987205;28;20030;-45
2022/02/28 09:06:48;;;;;;;3.33;1.10;;;;;;;20.04;45.37;101583.56;4985597;28;20045;-42
2022/02/28 09:09:14;;;;;;;4.80;1.00;;;;;;;20.05;44.70;101574.63;4987374;28;20041;-47
2022/02/28 09:11:40;;;;;;;4.22;1.42;;;;;;;20.03;44.69;101571.34;4984033;28;20132;-42
2022/02/28 09:14:06;;;;;;;3.90;0.90;;;;;;;20.03;44.49;101564.22;4986629;28;20145;-49
2022/02/28 09:16:32;;;;;;;4.57;1.08;;;;;;;20.03;44.41;101560.75;4988867;28;20026;-46
2022/02/28 09:18:59;;;;;;;4.55;1.30;;;;;;;20.03;44.28;101561.56;5000864;28;20378;-45
2022/02/28 09:21:26;;;;;;;2.70;0.77;;;;;;;20.05;44.10;101550.81;5002414;28;20112;-44
2022/02/28 09:23:54;;;;;;;2.70;0.93;;;;;;;20.04;44.15;101550.00;4985285;28;20454;-45
2022/02/28 09:26:21;;;;;;;4.18;0.60;;;;;;;20.04;43.59;101550.00;4987790;28;20038;-43
2022/02/28 09:28:46;;;;;;;2.35;0.93;;;;;;;20.01;43.09;101537.13;4982992;28;20109;-49
2022/02/28 09:31:12;;;;;;;4.38;1.50;;;;;;;19.99;41.83;101538.31;4988376;28;20216;-47
2022/02/28 09:33:37;;;;;;;3.03;1.98;;;;;;;20.03;40.01;101540.41;4986930;28;20060;-42
2022/02/28 09:36:04;;;;;;;8.70;2.90;;;;;;;20.08;38.52;101532.75;4982981;28;20053;-45
2022/02/28 09:38:30;;;;;;;4.40;2.75;;;;;;;20.12;37.62;101535.88;4987589;28;20162;-43
2022/02/28 09:40:57;;;;;;;4.38;1.92;;;;;;;20.12;37.29;101536.69;4982286;28;20293;-40
2022/02/28 09:43:22;;;;;;;5.82;1.80;;;;;;;20.09;37.59;101531.75;4986518;28;20036;-41
2022/02/28 09:45:48;;;;;;;6.43;2.20;;;;;;;20.07;37.82;101533.75;4987700;28;20027;-44
2022/02/28 09:48:14;;;;;;;20.48;5.47;;;;;;;20.04;38.53;101534.13;4995391;28;20505;-39
2022/02/28 09:50:39;;;;;;;9.30;4.32;;;;;;;20.00;38.90;101535.47;4981720;28;20033;-44
2022/02/28 09:53:08;;;;;;;19.08;5.03;;;;;;;19.98;39.26;101534.03;4984609;28;20398;-44
2022/02/28 09:55:33;;;;;;;14.00;3.50;;;;;;;19.95;39.14;101529.91;4984936;28;20033;-46
2022/02/28 09:57:59;;;;;;;19.05;4.60;;;;;;;19.95;39.32;101534.38;4987471;28;20042;-43
2022/02/28 10:00:25;;;;;;;12.57;3.97;;;;;;;19.93;38.74;101529.25;4986184;28;20057;-43
2022/02/28 10:02:55;;;;;;;14.10;3.47;;;;;;;19.92;38.10;101527.63;4982311;28;20537;-46
2022/02/28 10:05:20;;;;;;;5.57;2.55;;;;;;;19.90;37.88;101524.34;4977760;28;20217;-40
2022/02/28 10:07:55;;;;;;;8.00;3.53;;;;;;;19.87;37.83;101532.63;4978577;28;20041;-44
2022/02/28 10:10:22;;;;;;;11.57;3.80;;;;;;;19.84;37.93;101522.44;4977607;28;20045;-47
2022/02/28 10:12:49;;;;;;;5.10;3.15;;;;;;;19.82;38.05;101524.44;4984109;28;20048;-44
2022/02/28 10:15:20;;;;;;;7.88;2.85;;;;;;;19.79;38.00;101524.78;4981591;28;20452;-46
2022/02/28 10:17:55;;;;;;;19.75;3.50;;;;;;;19.77;38.09;101521.50;4981289;28;20088;-55
2022/02/28 10:20:32;;;;;;;13.40;3.20;;;;;;;19.74;38.56;101516.56;4988032;28;20109;-52
2022/02/28 10:23:00;;;;;;;12.73;3.13;;;;;;;19.76;39.00;101520.69;4980846;28;20038;-46
2022/02/28 10:25:37;;;;;;;11.02;3.58;;;;;;;19.76;39.62;101519.88;4996152;28;20037;-48
2022/02/28 10:28:10;;;;;;;6.03;2.70;;;;;;;19.74;39.44;101521.88;4985708;28;20645;-43
2022/02/28 10:30:36;;;;;;;6.60;2.95;;;;;;;19.72;39.30;101514.09;4986733;28;20482;-50
2022/02/28 10:33:14;;;;;;;12.75;3.75;;;;;;;19.67;39.24;101511.19;4988165;28;20285;-47
2022/02/28 10:36:01;;;;;;;5.70;2.95;;;;;;;19.65;39.13;101510.53;4990806;28;20030;-49
2022/02/28 10:38:35;;;;;;;11.23;3.03;;;;;;;19.61;38.93;101505.78;4983988;28;20041;-44
2022/02/28 10:41:03;;;;;;;6.63;3.38;;;;;;;19.62;38.87;101512.72;4976228;28;20057;-45
2022/02/28 10:43:30;;;;;;;6.20;3.05;;;;;;;19.60;38.09;101504.13;4992324;28;20643;-47
2022/02/28 10:45:57;;;;;;;9.98;3.35;;;;;;;19.61;39.68;101508.41;4985480;28;20056;-42
2022/02/28 10:48:24;;;;;;;4.95;2.72;;;;;;;19.61;39.04;101508.41;4983624;28;20652;-45
2022/02/28 10:50:50;;;;;;;6.35;2.63;;;;;;;19.60;39.01;101501.50;4987052;28;20073;-43
2022/02/28 10:53:18;;;;;;;5.35;2.85;;;;;;;19.59;39.17;101502.50;4985455;28;20038;-44
2022/02/28 10:55:45;;;;;;;8.48;2.17;;;;;;;19.59;39.15;101489.28;4981084;28;20031;-45
2022/02/28 10:58:17;;;;;;;4.93;2.78;;;;;;;19.60;39.35;101493.56;4998044;28;20036;-41
2022/02/28 11:00:55;;;;;;;5.28;2.67;;;;;;;19.59;39.34;101492.75;4985404;28;20474;-46
2022/02/28 11:03:21;;;;;;;4.18;2.30;;;;;;;19.61;39.28;101500.50;4986819;28;20022;-44
2022/02/28 11:05:58;;;;;;;6.63;3.45;;;;;;;19.59;39.38;101491.91;4983931;28;20426;-47
2022/02/28 11:08:26;;;;;;;8.05;2.88;;;;;;;19.59;39.42;101490.09;4979276;28;20037;-45
2022/02/28 11:11:06;;;;;;;4.20;2.40;;;;;;;19.59;39.40;101492.75;4982104;28;20038;-47
2022/02/28 11:13:32;;;;;;;5.15;2.20;;;;;;;19.59;39.61;101486.63;4983290;28;20046;-44
2022/02/28 11:15:58;;;;;;;3.13;2.03;;;;;;;19.56;39.44;101474.59;4980269;28;20384;-45
2022/02/28 11:18:24;;;;;;;8.68;2.83;;;;;;;19.55;39.49;101476.41;4985041;28;20309;-44
2022/02/28 11:20:50;;;;;;;3.90;2.05;;;;;;;19.53;39.48;101478.41;4983792;28;20069;-44
2022/02/28 11:23:19;;;;;;;5.55;2.92;;;;;;;19.52;39.39;101470.66;4983358;28;20490;-42